Time;durP1;ratioP1;P1;durP2;ratioP2;P2;SDS_P1;SDS_P2;PMS_P1;PMS_P2;Temp;Humidity;BMP_temperature;BMP_pressure;BME280_temperature;BME280_humidity;BME280_pressure;Samples;Min_cycle;Max_cycle;Signal;HPM_P1;HPM_P2
2021/07/14 00:01:13;;;;;;;7.07;6.30;;;;;;;;;;5028851;28;20913;-61
2021/07/14 00:03:38;;;;;;;7.40;6.57;;;;;;;;;;5028365;28;20495;-59
2021/07/14 00:06:03;;;;;;;8.90;6.65;;;;;;;;;;5017757;28;20210;-60
2021/07/14 00:08:28;;;;;;;8.43;6.80;;;;;;;;;;5015888;28;20223;-60
2021/07/14 00:10:54;;;;;;;9.50;6.87;;;;;;;;;;5001119;28;20184;-60
2021/07/14 00:13:33;;;;;;;7.90;7.20;;;;;;;;;;5016696;28;20418;-60
2021/07/14 00:24:02;;;;;;;8.13;6.35;;;;;;;;;;5016072;28;20203;-60
2021/07/14 00:26:28;;;;;;;8.13;6.32;;;;;;;;;;5014185;28;20211;-59
2021/07/14 00:28:53;;;;;;;7.03;6.32;;;;;;;;;;5013036;28;20187;-60
2021/07/14 00:31:19;;;;;;;6.95;6.25;;;;;;;;;;5025102;28;20262;-60
2021/07/14 00:33:44;;;;;;;7.13;6.30;;;;;;;;;;5023151;28;20586;-59
2021/07/14 00:36:10;;;;;;;9.02;6.38;;;;;;;;;;5003457;28;20186;-61
2021/07/14 00:38:36;;;;;;;7.47;6.57;;;;;;;;;;5016927;28;20309;-60
2021/07/14 00:41:02;;;;;;;8.75;6.50;;;;;;;;;;5025664;28;20188;-60
2021/07/14 00:43:28;;;;;;;9.75;6.30;;;;;;;;;;5029082;28;20190;-62
2021/07/14 00:45:53;;;;;;;7.53;6.82;;;;;;;;;;4999751;28;20203;-60
2021/07/14 00:48:26;;;;;;;7.80;6.90;;;;;;;;;;5020710;28;20544;-61
2021/07/14 00:50:52;;;;;;;9.25;7.78;;;;;;;;;;5014012;28;20187;-61
2021/07/14 00:53:17;;;;;;;8.90;8.07;;;;;;;;;;5014992;28;20252;-61
2021/07/14 00:55:42;;;;;;;10.35;7.90;;;;;;;;;;5020310;28;20197;-59
2021/07/14 00:58:07;;;;;;;8.48;7.68;;;;;;;;;;5018967;28;20682;-61
2021/07/14 01:00:33;;;;;;;8.45;7.63;;;;;;;;;;5027322;28;20179;-60
2021/07/14 01:02:58;;;;;;;14.90;7.40;;;;;;;;;;5021538;28;20190;-60
2021/07/14 01:05:30;;;;;;;10.38;7.38;;;;;;;;;;5017313;28;20236;-60
2021/07/14 01:08:14;;;;;;;10.55;7.00;;;;;;;;;;5008869;28;20246;-61
2021/07/14 01:10:46;;;;;;;8.32;7.63;;;;;;;;;;4999539;28;20183;-60
2021/07/14 01:13:21;;;;;;;7.40;6.70;;;;;;;;;;5009052;28;20274;-60
2021/07/14 01:15:50;;;;;;;8.10;7.38;;;;;;;;;;5025027;28;20229;-60
2021/07/14 01:18:21;;;;;;;8.57;7.78;;;;;;;;;;5023467;28;20252;-62
2021/07/14 01:20:53;;;;;;;7.90;7.10;;;;;;;;;;5025664;28;20203;-60
2021/07/14 01:23:18;;;;;;;8.45;7.55;;;;;;;;;;5019072;28;20572;-60
2021/07/14 01:25:53;;;;;;;8.43;7.57;;;;;;;;;;5016164;28;20211;-60
2021/07/14 01:28:19;;;;;;;10.60;8.43;;;;;;;;;;5018925;28;20214;-60
2021/07/14 01:30:44;;;;;;;8.82;7.55;;;;;;;;;;5013167;28;20179;-60
2021/07/14 01:33:10;;;;;;;12.20;7.60;;;;;;;;;;5025685;28;20540;-60
2021/07/14 01:35:38;;;;;;;15.35;8.75;;;;;;;;;;5024005;28;20265;-60
2021/07/14 01:38:04;;;;;;;14.52;8.93;;;;;;;;;;5021733;28;20215;-60
2021/07/14 01:40:31;;;;;;;15.55;9.00;;;;;;;;;;5011832;28;20252;-60
2021/07/14 01:42:57;;;;;;;15.48;9.90;;;;;;;;;;5017302;28;20659;-61
2021/07/14 01:45:29;;;;;;;21.77;9.30;;;;;;;;;;5011066;28;20210;-62
2021/07/14 01:47:55;;;;;;;13.88;9.90;;;;;;;;;;5020591;28;20202;-60
2021/07/14 01:50:21;;;;;;;18.20;10.07;;;;;;;;;;5016090;28;20171;-60
2021/07/14 01:52:47;;;;;;;12.65;9.95;;;;;;;;;;5022974;28;20655;-61
2021/07/14 01:55:13;;;;;;;14.98;9.43;;;;;;;;;;5024012;28;20178;-59
2021/07/14 01:57:39;;;;;;;16.05;9.77;;;;;;;;;;5011014;28;20306;-61
2021/07/14 02:00:06;;;;;;;13.80;9.40;;;;;;;;;;5008743;28;20183;-62
2021/07/14 02:02:34;;;;;;;11.68;8.98;;;;;;;;;;5024371;28;20355;-61
2021/07/14 02:04:59;;;;;;;10.85;9.30;;;;;;;;;;5006216;28;20198;-61
2021/07/14 02:07:26;;;;;;;14.45;9.32;;;;;;;;;;5022270;28;20218;-61
2021/07/14 02:09:52;;;;;;;13.90;9.73;;;;;;;;;;5021395;28;20204;-61
2021/07/14 02:12:19;;;;;;;13.73;9.10;;;;;;;;;;5026251;28;20266;-60
2021/07/14 02:14:47;;;;;;;11.35;9.88;;;;;;;;;;5011712;28;20187;-61
2021/07/14 02:17:13;;;;;;;12.23;9.40;;;;;;;;;;5025824;28;20742;-61
2021/07/14 02:19:40;;;;;;;12.45;9.77;;;;;;;;;;5030534;28;20217;-61
2021/07/14 02:22:06;;;;;;;10.77;9.68;;;;;;;;;;5021870;28;20210;-61
2021/07/14 02:24:33;;;;;;;10.43;9.10;;;;;;;;;;5018289;28;20187;-60
2021/07/14 02:27:04;;;;;;;10.18;9.07;;;;;;;;;;5023382;28;20211;-60
2021/07/14 02:29:29;;;;;;;12.93;9.73;;;;;;;;;;5025217;28;20262;-61
2021/07/14 02:31:54;;;;;;;10.38;9.25;;;;;;;;;;5024226;28;20366;-59
2021/07/14 02:34:20;;;;;;;10.50;9.50;;;;;;;;;;5007623;28;20214;-61
2021/07/14 02:36:45;;;;;;;11.48;10.43;;;;;;;;;;5027083;28;20460;-60
2021/07/14 02:39:11;;;;;;;13.90;10.93;;;;;;;;;;5019002;28;20189;-60
2021/07/14 02:41:49;;;;;;;13.68;11.05;;;;;;;;;;5029795;28;20194;-60
2021/07/14 02:44:17;;;;;;;13.02;11.60;;;;;;;;;;5026024;28;20183;-59
2021/07/14 02:46:43;;;;;;;14.80;11.35;;;;;;;;;;5026104;28;20214;-61
2021/07/14 02:49:10;;;;;;;16.05;11.65;;;;;;;;;;5022022;28;20293;-61
2021/07/14 02:51:37;;;;;;;16.85;11.82;;;;;;;;;;5000096;28;20175;-61
2021/07/14 02:54:04;;;;;;;15.70;12.95;;;;;;;;;;5030830;28;20197;-61
2021/07/14 02:56:30;;;;;;;15.13;13.48;;;;;;;;;;5028348;28;20202;-59
2021/07/14 02:58:57;;;;;;;15.25;13.45;;;;;;;;;;5026734;28;20194;-61
2021/07/14 03:01:23;;;;;;;17.90;14.60;;;;;;;;;;5010514;28;20210;-61
2021/07/14 03:03:49;;;;;;;22.20;16.00;;;;;;;;;;5027130;28;20265;-61
2021/07/14 03:06:15;;;;;;;20.85;15.15;;;;;;;;;;5019742;28;20253;-61
2021/07/14 03:08:43;;;;;;;20.45;16.77;;;;;;;;;;5011673;28;20658;-60
2021/07/14 03:11:09;;;;;;;17.77;15.95;;;;;;;;;;5012449;28;20179;-61
2021/07/14 03:13:36;;;;;;;21.13;16.88;;;;;;;;;;5028706;28;20197;-61
2021/07/14 03:16:01;;;;;;;20.55;16.40;;;;;;;;;;5028095;28;20265;-60
2021/07/14 03:18:28;;;;;;;19.27;17.38;;;;;;;;;;5027981;28;20316;-61
2021/07/14 03:20:54;;;;;;;18.50;16.65;;;;;;;;;;5009845;28;20186;-60
2021/07/14 03:23:19;;;;;;;20.77;17.00;;;;;;;;;;5019582;28;20563;-61
2021/07/14 03:25:45;;;;;;;18.73;16.92;;;;;;;;;;5020593;28;20199;-62
2021/07/14 03:28:10;;;;;;;21.48;17.95;;;;;;;;;;5029797;28;20560;-59
2021/07/14 03:30:36;;;;;;;21.38;19.20;;;;;;;;;;5014047;28;20195;-61
2021/07/14 03:33:01;;;;;;;22.85;19.55;;;;;;;;;;5022562;28;20189;-60
2021/07/14 03:35:26;;;;;;;22.05;19.75;;;;;;;;;;5025539;28;20717;-61
2021/07/14 03:37:52;;;;;;;23.58;18.85;;;;;;;;;;5009182;28;20289;-61
2021/07/14 03:40:18;;;;;;;20.27;18.13;;;;;;;;;;5024462;28;20182;-61
2021/07/14 03:42:44;;;;;;;23.33;19.10;;;;;;;;;;5003859;28;20198;-61
2021/07/14 03:45:10;;;;;;;20.25;18.17;;;;;;;;;;5028710;28;20185;-61
2021/07/14 03:47:35;;;;;;;22.95;20.65;;;;;;;;;;5020539;28;20207;-61
2021/07/14 03:50:01;;;;;;;24.15;19.08;;;;;;;;;;5021039;28;20182;-60
2021/07/14 03:52:27;;;;;;;20.90;18.73;;;;;;;;;;5018521;28;20183;-60
2021/07/14 03:54:53;;;;;;;22.00;19.88;;;;;;;;;;5019046;28;20178;-61
2021/07/14 03:57:18;;;;;;;23.02;20.73;;;;;;;;;;5026915;28;20206;-61
2021/07/14 03:59:44;;;;;;;24.15;21.50;;;;;;;;;;5019719;28;20642;-61
2021/07/14 04:02:13;;;;;;;23.55;21.15;;;;;;;;;;5027613;28;20681;-61
2021/07/14 04:04:38;;;;;;;23.42;20.92;;;;;;;;;;5021173;28;20189;-62
2021/07/14 04:07:13;;;;;;;22.08;19.40;;;;;;;;;;5014235;28;20211;-62
2021/07/14 04:09:38;;;;;;;21.65;19.60;;;;;;;;;;5023048;28;20325;-60
2021/07/14 04:12:04;;;;;;;22.50;20.30;;;;;;;;;;5025048;28;20651;-60
2021/07/14 04:14:30;;;;;;;21.25;19.10;;;;;;;;;;5027566;28;20182;-60
2021/07/14 04:16:56;;;;;;;21.90;19.80;;;;;;;;;;5026286;28;20202;-62
2021/07/14 04:19:21;;;;;;;21.77;19.45;;;;;;;;;;5026045;28;20190;-61
2021/07/14 04:21:46;;;;;;;22.57;20.33;;;;;;;;;;5029277;28;20186;-60
2021/07/14 04:24:12;;;;;;;24.55;20.73;;;;;;;;;;5024005;28;20437;-61
2021/07/14 04:26:37;;;;;;;23.25;20.73;;;;;;;;;;5020691;28;20210;-61
2021/07/14 04:29:03;;;;;;;27.17;20.90;;;;;;;;;;5013093;28;20180;-60
2021/07/14 04:31:28;;;;;;;24.20;21.02;;;;;;;;;;5013831;28;20191;-61
2021/07/14 04:33:54;;;;;;;23.13;20.92;;;;;;;;;;5017776;28;20186;-61
2021/07/14 04:36:19;;;;;;;22.60;20.33;;;;;;;;;;5023414;28;20805;-59
2021/07/14 04:38:44;;;;;;;24.98;22.00;;;;;;;;;;4998234;28;20206;-59
2021/07/14 04:41:09;;;;;;;23.70;21.25;;;;;;;;;;4999697;28;20184;-61
2021/07/14 04:43:34;;;;;;;24.75;22.17;;;;;;;;;;5025746;28;20208;-61
2021/07/14 04:46:00;;;;;;;24.60;21.25;;;;;;;;;;5025891;28;20294;-61
2021/07/14 04:48:25;;;;;;;24.35;21.63;;;;;;;;;;5024953;28;20550;-60
2021/07/14 04:50:51;;;;;;;24.42;21.85;;;;;;;;;;5017968;28;20662;-61
2021/07/14 04:53:16;;;;;;;24.17;21.50;;;;;;;;;;5022196;28;20189;-60
2021/07/14 04:55:41;;;;;;;24.20;21.77;;;;;;;;;;5008700;28;20687;-60
2021/07/14 04:58:07;;;;;;;24.88;22.35;;;;;;;;;;5022241;28;20438;-59
2021/07/14 05:00:32;;;;;;;24.67;21.80;;;;;;;;;;5023107;28;20670;-61
2021/07/14 05:02:57;;;;;;;25.13;22.23;;;;;;;;;;5017800;28;20218;-60
2021/07/14 05:05:22;;;;;;;22.95;20.48;;;;;;;;;;5001045;28;20475;-60
2021/07/14 05:07:49;;;;;;;26.88;22.15;;;;;;;;;;5002302;28;20210;-61
2021/07/14 05:10:15;;;;;;;26.02;21.05;;;;;;;;;;5028938;28;20179;-60
2021/07/14 05:12:41;;;;;;;23.67;21.30;;;;;;;;;;5013128;28;20195;-60
2021/07/14 05:15:06;;;;;;;22.42;20.10;;;;;;;;;;5024712;28;20538;-60
2021/07/14 05:17:31;;;;;;;22.80;20.48;;;;;;;;;;5023307;28;20209;-61
2021/07/14 05:19:57;;;;;;;23.20;20.63;;;;;;;;;;5025333;28;20274;-61
2021/07/14 05:22:22;;;;;;;23.17;20.88;;;;;;;;;;5025381;28;20524;-61
2021/07/14 05:24:47;;;;;;;23.52;21.17;;;;;;;;;;5017013;28;20756;-60
2021/07/14 05:27:12;;;;;;;23.43;20.93;;;;;;;;;;5012653;28;20231;-60
2021/07/14 05:29:37;;;;;;;24.27;20.77;;;;;;;;;;5011206;28;20449;-60
2021/07/14 05:32:03;;;;;;;22.25;19.90;;;;;;;;;;5011664;28;20557;-60
2021/07/14 05:34:28;;;;;;;22.98;20.67;;;;;;;;;;5003909;28;20269;-60
2021/07/14 05:36:54;;;;;;;22.10;19.83;;;;;;;;;;5021595;28;20273;-60
2021/07/14 05:39:19;;;;;;;25.83;19.75;;;;;;;;;;5016055;28;20185;-61
2021/07/14 05:41:45;;;;;;;21.17;18.97;;;;;;;;;;5025496;28;20183;-61
2021/07/14 05:44:10;;;;;;;20.92;18.60;;;;;;;;;;5028453;28;20463;-61
2021/07/14 05:46:35;;;;;;;21.67;19.38;;;;;;;;;;5025374;28;20215;-60
2021/07/14 05:49:03;;;;;;;20.95;18.67;;;;;;;;;;5024669;28;20183;-61
2021/07/14 05:51:28;;;;;;;23.33;17.67;;;;;;;;;;5020503;28;20651;-60
2021/07/14 05:53:53;;;;;;;22.83;18.70;;;;;;;;;;5024031;28;20229;-61
2021/07/14 05:56:19;;;;;;;20.42;18.35;;;;;;;;;;5017256;28;20215;-59
2021/07/14 05:58:44;;;;;;;21.25;18.90;;;;;;;;;;5031032;28;20171;-60
2021/07/14 06:01:09;;;;;;;23.52;19.35;;;;;;;;;;5022098;28;20187;-61
2021/07/14 06:03:35;;;;;;;29.00;20.52;;;;;;;;;;5016726;28;20270;-60
2021/07/14 06:06:00;;;;;;;23.52;21.02;;;;;;;;;;5028189;28;20252;-60
2021/07/14 06:08:25;;;;;;;29.58;22.35;;;;;;;;;;5014037;28;20273;-61
2021/07/14 06:10:51;;;;;;;25.83;22.33;;;;;;;;;;5026231;28;20191;-60
2021/07/14 06:13:16;;;;;;;24.00;21.42;;;;;;;;;;5026170;28;20178;-59
2021/07/14 06:15:41;;;;;;;27.67;20.13;;;;;;;;;;5026210;28;20183;-59
2021/07/14 06:18:06;;;;;;;23.73;19.95;;;;;;;;;;5017016;28;20207;-59
2021/07/14 06:20:32;;;;;;;26.02;18.77;;;;;;;;;;5023433;28;20201;-60
2021/07/14 06:22:57;;;;;;;22.02;18.13;;;;;;;;;;5026778;28;20557;-60
2021/07/14 06:25:22;;;;;;;20.92;18.73;;;;;;;;;;4996824;28;20281;-60
2021/07/14 06:27:47;;;;;;;20.55;18.45;;;;;;;;;;5015963;28;20223;-62
2021/07/14 06:30:13;;;;;;;22.38;17.33;;;;;;;;;;5016885;28;20167;-59
2021/07/14 06:32:39;;;;;;;20.52;16.27;;;;;;;;;;5020519;28;20225;-61
2021/07/14 06:35:06;;;;;;;20.85;16.90;;;;;;;;;;5018696;28;20194;-60
2021/07/14 06:37:31;;;;;;;23.30;16.92;;;;;;;;;;5016979;28;20313;-59
2021/07/14 06:39:57;;;;;;;20.75;16.63;;;;;;;;;;5016149;28;20266;-60
2021/07/14 06:42:22;;;;;;;21.83;16.00;;;;;;;;;;5017395;28;20225;-61
2021/07/14 06:44:47;;;;;;;19.80;16.40;;;;;;;;;;5016262;28;21635;-61
2021/07/14 06:47:13;;;;;;;24.50;18.23;;;;;;;;;;5019625;28;20277;-61
2021/07/14 06:49:38;;;;;;;22.45;17.88;;;;;;;;;;5019893;28;20294;-59
2021/07/14 06:52:03;;;;;;;25.73;17.05;;;;;;;;;;5016702;28;20218;-61
2021/07/14 06:54:28;;;;;;;18.73;16.67;;;;;;;;;;5017179;28;20183;-60
2021/07/14 06:56:54;;;;;;;20.15;16.77;;;;;;;;;;5014287;28;20211;-60
2021/07/14 06:59:19;;;;;;;19.88;15.40;;;;;;;;;;5018244;28;20187;-61
2021/07/14 07:01:44;;;;;;;18.33;15.85;;;;;;;;;;5015565;28;20187;-60
2021/07/14 07:04:10;;;;;;;18.90;15.60;;;;;;;;;;5018231;28;20710;-60
2021/07/14 07:06:35;;;;;;;20.30;15.43;;;;;;;;;;5015559;28;20214;-61
2021/07/14 07:09:00;;;;;;;22.52;16.65;;;;;;;;;;4998739;28;20180;-61
2021/07/14 07:11:25;;;;;;;18.20;14.97;;;;;;;;;;5018279;28;20199;-60
2021/07/14 07:13:50;;;;;;;19.52;15.63;;;;;;;;;;5015356;28;20429;-59
2021/07/14 07:16:15;;;;;;;16.97;14.90;;;;;;;;;;5000909;28;20183;-58
2021/07/14 07:18:41;;;;;;;17.83;15.33;;;;;;;;;;5016492;28;20417;-59
2021/07/14 07:21:07;;;;;;;16.60;14.55;;;;;;;;;;5017211;28;20925;-59
2021/07/14 07:23:33;;;;;;;17.38;14.63;;;;;;;;;;5014948;28;20210;-61
2021/07/14 07:25:58;;;;;;;20.23;17.40;;;;;;;;;;5015715;28;20241;-60
2021/07/14 07:28:29;;;;;;;18.98;16.73;;;;;;;;;;5018056;28;20671;-59
2021/07/14 07:30:54;;;;;;;19.35;16.48;;;;;;;;;;5018830;28;20171;-61
2021/07/14 07:33:19;;;;;;;17.88;15.98;;;;;;;;;;5019977;28;20704;-59
2021/07/14 07:35:44;;;;;;;17.75;14.57;;;;;;;;;;5019743;28;20703;-60
2021/07/14 07:38:10;;;;;;;21.48;14.40;;;;;;;;;;5025561;28;20199;-59
2021/07/14 07:40:35;;;;;;;15.88;14.00;;;;;;;;;;5026059;28;20199;-61
2021/07/14 07:43:00;;;;;;;17.65;15.32;;;;;;;;;;5019815;28;20182;-61
2021/07/14 07:45:25;;;;;;;20.90;15.03;;;;;;;;;;5026526;28;20191;-60
2021/07/14 07:47:51;;;;;;;20.92;15.43;;;;;;;;;;5027223;28;20489;-60
2021/07/14 07:50:16;;;;;;;20.00;16.27;;;;;;;;;;5020022;28;20350;-60
2021/07/14 07:52:41;;;;;;;18.02;15.13;;;;;;;;;;5022736;28;20179;-60
2021/07/14 07:55:09;;;;;;;14.80;12.40;;;;;;;;;;5027470;28;20178;-61
2021/07/14 07:57:35;;;;;;;15.20;11.85;;;;;;;;;;5013740;28;20293;-61
2021/07/14 08:00:00;;;;;;;22.48;12.25;;;;;;;;;;5023731;28;20277;-60
2021/07/14 08:02:25;;;;;;;14.73;12.77;;;;;;;;;;5027111;28;20191;-62
2021/07/14 08:04:50;;;;;;;15.23;11.35;;;;;;;;;;5024203;28;20211;-61
2021/07/14 08:07:15;;;;;;;10.87;9.50;;;;;;;;;;5019764;28;20234;-60
2021/07/14 08:09:41;;;;;;;12.45;10.80;;;;;;;;;;5035513;22;20517;-60
2021/07/14 08:12:06;;;;;;;14.27;11.30;;;;;;;;;;5022602;28;20202;-60
2021/07/14 08:14:31;;;;;;;14.25;10.23;;;;;;;;;;5010671;28;20561;-60
2021/07/14 08:16:56;;;;;;;13.63;11.27;;;;;;;;;;5021227;28;20253;-59
2021/07/14 08:19:21;;;;;;;12.97;11.40;;;;;;;;;;5027329;28;20218;-60
2021/07/14 08:21:47;;;;;;;17.42;12.25;;;;;;;;;;5022047;28;20425;-60
2021/07/14 08:24:12;;;;;;;14.50;13.00;;;;;;;;;;5025941;28;20255;-60
2021/07/14 08:26:37;;;;;;;13.80;11.77;;;;;;;;;;5024115;28;20289;-60
2021/07/14 08:29:02;;;;;;;17.63;11.82;;;;;;;;;;5020947;28;20206;-59
2021/07/14 08:31:28;;;;;;;16.60;11.95;;;;;;;;;;5024989;28;20183;-60
2021/07/14 08:33:53;;;;;;;17.27;12.23;;;;;;;;;;5014712;28;20179;-60
2021/07/14 08:36:18;;;;;;;14.43;11.23;;;;;;;;;;5021772;28;20190;-58
2021/07/14 08:38:43;;;;;;;16.10;12.50;;;;;;;;;;5025013;28;20445;-61
2021/07/14 08:41:09;;;;;;;12.05;10.43;;;;;;;;;;5015117;28;20434;-60
2021/07/14 08:43:36;;;;;;;13.13;11.52;;;;;;;;;;5005550;28;20195;-60
2021/07/14 08:46:02;;;;;;;15.90;10.57;;;;;;;;;;5005800;28;20203;-60
2021/07/14 08:48:27;;;;;;;14.63;11.23;;;;;;;;;;5027951;28;20792;-59
2021/07/14 08:50:57;;;;;;;13.63;10.57;;;;;;;;;;5025999;28;20198;-60
2021/07/14 08:53:22;;;;;;;13.10;10.45;;;;;;;;;;5022419;28;20198;-60
2021/07/14 08:55:48;;;;;;;16.30;11.70;;;;;;;;;;5026869;28;20547;-61
2021/07/14 08:58:14;;;;;;;15.52;11.10;;;;;;;;;;5027663;28;20257;-61
2021/07/14 09:00:40;;;;;;;16.90;10.70;;;;;;;;;;5010576;28;20547;-60
2021/07/14 09:03:05;;;;;;;14.75;10.95;;;;;;;;;;5010175;28;20851;-62
2021/07/14 09:05:31;;;;;;;15.00;9.43;;;;;;;;;;5022387;28;20185;-61
2021/07/14 09:07:56;;;;;;;12.13;10.32;;;;;;;;;;5003578;28;20210;-61
2021/07/14 09:10:21;;;;;;;15.65;11.13;;;;;;;;;;5021552;28;20253;-60
2021/07/14 09:12:47;;;;;;;12.05;10.15;;;;;;;;;;5022705;28;20190;-59
2021/07/14 09:15:13;;;;;;;12.20;9.95;;;;;;;;;;5023533;28;20202;-60
2021/07/14 09:17:43;;;;;;;13.32;9.95;;;;;;;;;;5024099;28;20674;-60
2021/07/14 09:20:10;;;;;;;11.35;9.23;;;;;;;;;;4997351;28;20214;-59
2021/07/14 09:22:35;;;;;;;13.55;9.93;;;;;;;;;;5015091;28;20274;-59
2021/07/14 09:25:07;;;;;;;12.13;9.88;;;;;;;;;;4997801;28;20273;-61
2021/07/14 09:27:38;;;;;;;13.27;9.93;;;;;;;;;;5022344;28;20872;-60
2021/07/14 09:30:09;;;;;;;12.32;9.20;;;;;;;;;;5018106;28;20205;-61
2021/07/14 09:32:45;;;;;;;11.60;8.57;;;;;;;;;;5019575;28;20270;-59
2021/07/14 09:35:10;;;;;;;10.90;8.90;;;;;;;;;;5019580;28;20194;-59
2021/07/14 09:37:39;;;;;;;10.02;7.70;;;;;;;;;;5030668;28;20186;-59
2021/07/14 09:40:13;;;;;;;8.45;6.93;;;;;;;;;;5018667;28;20210;-59
2021/07/14 09:42:38;;;;;;;10.30;7.00;;;;;;;;;;5019115;28;20728;-60
2021/07/14 09:45:04;;;;;;;7.65;6.68;;;;;;;;;;5021491;28;20190;-59
2021/07/14 09:47:29;;;;;;;9.50;6.55;;;;;;;;;;5025374;28;20214;-60
2021/07/14 09:49:54;;;;;;;8.23;5.97;;;;;;;;;;5026366;28;20282;-59
2021/07/14 09:52:20;;;;;;;8.80;6.38;;;;;;;;;;5016607;28;20437;-60
2021/07/14 09:54:45;;;;;;;5.97;5.38;;;;;;;;;;5018953;28;20183;-60
2021/07/14 09:57:16;;;;;;;6.75;5.70;;;;;;;;;;5024594;28;20175;-61
2021/07/14 09:59:41;;;;;;;9.68;5.32;;;;;;;;;;5015611;28;20199;-61
2021/07/14 10:02:10;;;;;;;5.38;4.88;;;;;;;;;;5020130;28;20643;-60
2021/07/14 10:04:40;;;;;;;6.78;5.57;;;;;;;;;;5017777;28;20273;-59
2021/07/14 10:07:06;;;;;;;10.82;6.28;;;;;;;;;;5014589;28;20214;-60
2021/07/14 10:09:31;;;;;;;8.43;5.47;;;;;;;;;;5016310;28;20207;-60
2021/07/14 10:12:16;;;;;;;7.93;5.57;;;;;;;;;;5018470;28;20654;-60
2021/07/14 10:14:41;;;;;;;12.75;7.00;;;;;;;;;;5016111;28;20252;-59
2021/07/14 10:17:06;;;;;;;7.53;6.10;;;;;;;;;;5026188;28;20655;-59
2021/07/14 10:19:32;;;;;;;8.43;6.53;;;;;;;;;;5014265;28;20203;-58
2021/07/14 10:21:58;;;;;;;7.82;6.05;;;;;;;;;;5017386;28;20445;-60
2021/07/14 10:24:23;;;;;;;8.10;6.40;;;;;;;;;;5017612;28;20201;-60
2021/07/14 10:26:50;;;;;;;12.63;6.22;;;;;;;;;;5019215;28;20298;-60
2021/07/14 10:29:18;;;;;;;8.05;6.60;;;;;;;;;;5020465;28;20280;-61
2021/07/14 10:31:46;;;;;;;9.57;6.55;;;;;;;;;;5024325;28;20184;-61
2021/07/14 10:34:11;;;;;;;7.93;6.35;;;;;;;;;;5028027;28;20241;-59
2021/07/14 10:36:37;;;;;;;12.68;6.57;;;;;;;;;;5019012;28;20813;-59
2021/07/14 10:39:07;;;;;;;8.05;6.53;;;;;;;;;;5002984;28;20207;-60
2021/07/14 10:41:33;;;;;;;9.73;7.53;;;;;;;;;;5021241;28;20562;-60
2021/07/14 10:43:59;;;;;;;8.27;6.93;;;;;;;;;;5018224;28;20195;-60
2021/07/14 10:46:25;;;;;;;8.13;6.80;;;;;;;;;;5024788;28;20606;-59
2021/07/14 10:48:54;;;;;;;12.82;6.80;;;;;;;;;;5024706;28;20210;-59
2021/07/14 10:51:20;;;;;;;8.05;6.50;;;;;;;;;;5021895;28;20231;-59
2021/07/14 10:53:48;;;;;;;9.98;7.10;;;;;;;;;;5018766;28;20203;-60
2021/07/14 10:56:14;;;;;;;7.03;6.32;;;;;;;;;;5013076;28;20290;-60
2021/07/14 10:58:39;;;;;;;8.98;7.55;;;;;;;;;;5026753;28;20207;-61
2021/07/14 11:01:04;;;;;;;9.60;7.43;;;;;;;;;;5022490;28;20195;-61
2021/07/14 11:03:33;;;;;;;7.90;7.10;;;;;;;;;;5026932;28;20202;-61
2021/07/14 11:05:59;;;;;;;7.70;6.80;;;;;;;;;;5020100;28;20275;-61
2021/07/14 11:08:37;;;;;;;9.10;7.72;;;;;;;;;;5021909;28;20274;-62
2021/07/14 11:11:02;;;;;;;10.75;8.85;;;;;;;;;;5025534;28;20655;-60
2021/07/14 11:13:28;;;;;;;12.23;10.40;;;;;;;;;;5014148;28;20189;-60
2021/07/14 11:15:55;;;;;;;10.40;8.75;;;;;;;;;;5026785;28;20177;-61
2021/07/14 11:18:29;;;;;;;9.98;8.55;;;;;;;;;;5020463;28;20182;-61
2021/07/14 11:20:54;;;;;;;11.90;10.25;;;;;;;;;;5021884;28;20678;-61
2021/07/14 11:23:20;;;;;;;8.70;7.80;;;;;;;;;;5021014;28;20194;-60
2021/07/14 11:25:47;;;;;;;14.20;9.50;;;;;;;;;;5004378;28;20823;-61
2021/07/14 11:28:12;;;;;;;10.07;8.98;;;;;;;;;;5021727;28;20178;-61
2021/07/14 11:30:48;;;;;;;10.45;9.35;;;;;;;;;;5020963;28;20624;-61
2021/07/14 11:33:24;;;;;;;10.70;9.32;;;;;;;;;;5007010;28;20187;-60
2021/07/14 11:35:53;;;;;;;12.32;9.13;;;;;;;;;;5021804;28;20835;-60
2021/07/14 11:38:20;;;;;;;10.82;9.43;;;;;;;;;;5015072;28;20232;-61
2021/07/14 11:40:46;;;;;;;12.05;10.18;;;;;;;;;;5018643;28;20187;-59
2021/07/14 11:43:13;;;;;;;10.48;8.80;;;;;;;;;;5018264;28;20710;-60
2021/07/14 11:45:43;;;;;;;15.63;13.55;;;;;;;;;;5009275;28;20762;-61
2021/07/14 11:48:08;;;;;;;11.30;8.77;;;;;;;;;;5014348;28;20205;-60
2021/07/14 11:50:43;;;;;;;8.30;7.45;;;;;;;;;;5017223;28;20278;-60
2021/07/14 11:53:36;;;;;;;8.75;7.85;;;;;;;;;;5018840;28;20201;-58
2021/07/14 11:56:01;;;;;;;9.00;7.88;;;;;;;;;;5019962;28;20182;-60
2021/07/14 11:58:41;;;;;;;10.80;7.32;;;;;;;;;;5025487;28;20545;-60
2021/07/14 12:01:10;;;;;;;9.38;7.03;;;;;;;;;;5021992;28;20429;-60
2021/07/14 12:03:36;;;;;;;9.32;6.95;;;;;;;;;;5023870;28;20225;-59
2021/07/14 12:06:01;;;;;;;7.97;5.95;;;;;;;;;;5025699;28;20202;-59
2021/07/14 12:08:36;;;;;;;6.15;5.55;;;;;;;;;;5024859;28;20190;-60
2021/07/14 12:11:01;;;;;;;7.95;5.60;;;;;;;;;;5023471;28;20209;-59
2021/07/14 12:13:26;;;;;;;6.10;5.40;;;;;;;;;;5022884;28;20619;-58
2021/07/14 12:15:51;;;;;;;6.53;5.40;;;;;;;;;;5009143;28;20186;-59
2021/07/14 12:18:17;;;;;;;7.38;5.60;;;;;;;;;;5024676;28;20206;-60
2021/07/14 12:20:49;;;;;;;9.55;6.70;;;;;;;;;;5023470;28;20222;-59
2021/07/14 12:23:15;;;;;;;6.50;5.55;;;;;;;;;;5019229;28;20184;-59
2021/07/14 12:25:40;;;;;;;6.47;5.35;;;;;;;;;;5015353;28;20186;-60
2021/07/14 12:28:09;;;;;;;6.05;4.28;;;;;;;;;;5031372;28;20210;-60
2021/07/14 12:30:36;;;;;;;6.40;3.33;;;;;;;;;;5023521;28;20215;-59
2021/07/14 12:33:04;;;;;;;3.58;3.10;;;;;;;;;;5023084;28;20233;-60
2021/07/14 12:35:32;;;;;;;3.10;2.60;;;;;;;;;;5024608;28;20193;-59
2021/07/14 12:37:57;;;;;;;3.15;2.35;;;;;;;;;;5019397;28;20764;-60
2021/07/14 12:40:27;;;;;;;2.83;1.80;;;;;;;;;;5019006;28;20694;-60
2021/07/14 12:42:53;;;;;;;6.20;1.92;;;;;;;;;;5013770;28;20922;-60
2021/07/14 12:45:23;;;;;;;1.05;0.95;;;;;;;;;;5023655;28;20202;-60
2021/07/14 12:47:48;;;;;;;1.70;0.75;;;;;;;;;;5026602;28;20298;-60
2021/07/14 12:50:19;;;;;;;1.30;0.90;;;;;;;;;;5010628;28;20255;-59
2021/07/14 12:52:49;;;;;;;5.45;0.70;;;;;;;;;;5021103;28;20195;-61
2021/07/14 12:55:17;;;;;;;0.60;0.60;;;;;;;;;;5021584;28;20236;-60
2021/07/14 12:57:42;;;;;;;3.10;0.60;;;;;;;;;;5023693;28;20186;-60
2021/07/14 13:00:08;;;;;;;1.35;0.40;;;;;;;;;;5006003;28;20207;-59
2021/07/14 13:02:46;;;;;;;1.45;0.57;;;;;;;;;;5023117;28;20251;-59
2021/07/14 13:05:13;;;;;;;1.10;0.60;;;;;;;;;;5020277;28;20175;-59
2021/07/14 13:07:39;;;;;;;0.50;0.50;;;;;;;;;;5019595;28;20225;-59
2021/07/14 13:10:06;;;;;;;0.65;0.40;;;;;;;;;;5019868;28;20257;-60
2021/07/14 13:12:32;;;;;;;0.50;0.50;;;;;;;;;;5010468;28;20184;-60
2021/07/14 13:14:57;;;;;;;0.82;0.60;;;;;;;;;;5020601;28;20568;-60
2021/07/14 13:17:24;;;;;;;2.45;0.70;;;;;;;;;;5015378;28;20274;-59
2021/07/14 13:19:50;;;;;;;1.50;0.70;;;;;;;;;;5019375;28;20221;-59
2021/07/14 13:22:15;;;;;;;7.90;0.90;;;;;;;;;;5016620;28;20724;-59
2021/07/14 13:24:40;;;;;;;5.35;1.08;;;;;;;;;;5024098;28;20186;-59
2021/07/14 13:27:05;;;;;;;2.13;0.80;;;;;;;;;;5022094;28;20576;-59
2021/07/14 13:29:31;;;;;;;6.43;0.73;;;;;;;;;;5021422;28;20202;-59
2021/07/14 13:32:09;;;;;;;2.40;0.68;;;;;;;;;;5022824;28;20661;-58
2021/07/14 13:34:38;;;;;;;1.00;0.90;;;;;;;;;;5020266;28;20209;-59
2021/07/14 13:37:03;;;;;;;0.90;0.90;;;;;;;;;;5005651;28;20244;-59
2021/07/14 13:39:30;;;;;;;4.90;0.90;;;;;;;;;;5023921;28;20199;-59
2021/07/14 13:41:57;;;;;;;0.98;0.90;;;;;;;;;;5016923;28;20184;-60
2021/07/14 13:44:25;;;;;;;1.05;1.00;;;;;;;;;;5008634;28;20179;-59
2021/07/14 13:46:50;;;;;;;1.08;1.00;;;;;;;;;;5021637;28;20567;-59
2021/07/14 13:49:18;;;;;;;1.10;1.00;;;;;;;;;;4994575;28;20199;-60
2021/07/14 13:51:43;;;;;;;1.65;1.05;;;;;;;;;;5012956;28;20218;-60
2021/07/14 13:54:24;;;;;;;2.67;1.15;;;;;;;;;;5024263;28;20205;-59
2021/07/14 13:56:50;;;;;;;1.23;1.10;;;;;;;;;;5018861;28;20182;-59
2021/07/14 13:59:18;;;;;;;1.75;1.30;;;;;;;;;;5020147;28;20195;-58
2021/07/14 14:01:56;;;;;;;1.10;1.00;;;;;;;;;;5017850;28;20281;-60
2021/07/14 14:04:21;;;;;;;1.77;1.02;;;;;;;;;;5018256;28;20183;-59
2021/07/14 14:06:46;;;;;;;2.40;1.10;;;;;;;;;;5017198;28;20233;-58
2021/07/14 14:09:18;;;;;;;1.15;1.00;;;;;;;;;;5020172;28;20214;-60
2021/07/14 14:11:43;;;;;;;0.88;0.88;;;;;;;;;;5028988;23;20221;-75
2021/07/14 14:14:08;;;;;;;2.00;1.20;;;;;;;;;;4997659;28;20192;-75
2021/07/14 14:16:33;;;;;;;2.38;1.50;;;;;;;;;;5000133;28;20180;-74
2021/07/14 14:18:59;;;;;;;1.20;1.10;;;;;;;;;;4996529;28;20180;-74
2021/07/14 14:21:24;;;;;;;0.80;0.80;;;;;;;;;;5003982;28;20548;-74
2021/07/14 14:23:49;;;;;;;1.02;0.93;;;;;;;;;;4999274;28;20211;-73
2021/07/14 14:26:16;;;;;;;3.50;1.40;;;;;;;;;;4997995;28;20266;-74
2021/07/14 14:28:41;;;;;;;1.48;0.90;;;;;;;;;;4998607;28;20180;-75
2021/07/14 14:31:08;;;;;;;1.50;1.30;;;;;;;;;;4999076;28;20184;-74
2021/07/14 14:33:33;;;;;;;1.40;1.30;;;;;;;;;;4993674;28;20196;-75